createdAt,value
2016-08-02T00:01:21.970Z,13.4
2016-08-02T00:16:24.473Z,13.3
2016-08-02T00:31:22.002Z,13.4
2016-08-02T00:46:17.471Z,13.4
2016-08-02T01:01:17.424Z,13.5
2016-08-02T01:16:17.422Z,13.5
2016-08-02T01:31:22.502Z,13.5
2016-08-02T01:46:22.513Z,13.5
2016-08-02T02:01:24.037Z,13.5
2016-08-02T02:16:17.454Z,13.6
2016-08-02T02:31:25.668Z,13.6
2016-08-02T02:46:28.404Z,13.6
2016-08-02T03:01:19.459Z,13.6
2016-08-02T03:16:23.781Z,13.6
2016-08-02T03:31:22.081Z,13.7
2016-08-02T03:46:17.480Z,13.7
2016-08-02T04:01:17.535Z,13.6
2016-08-02T04:16:17.481Z,13.5
2016-08-02T04:31:17.481Z,13.5
2016-08-02T04:46:22.083Z,13.6
2016-08-02T05:01:17.550Z,13.7
2016-08-02T05:16:17.519Z,13.7
2016-08-02T05:31:25.640Z,13.8
2016-08-02T05:46:23.770Z,13.9
2016-08-02T06:01:23.793Z,14.1
2016-08-02T06:16:36.583Z,14.1
2016-08-02T06:31:19.560Z,14.2
2016-08-02T06:46:23.694Z,14.2
2016-08-02T07:01:23.732Z,14.2
2016-08-02T07:16:19.592Z,14.1
2016-08-02T07:31:19.599Z,14.2
2016-08-02T07:46:23.716Z,14.2
2016-08-02T08:01:23.864Z,14.4
2016-08-02T08:16:21.095Z,14.5
2016-08-02T08:31:23.813Z,14.7
2016-08-02T08:46:22.211Z,14.9
2016-08-02T09:01:17.613Z,14.9
2016-08-02T09:16:22.625Z,14.9
2016-08-02T09:31:23.930Z,14.7
2016-08-02T09:46:25.953Z,14.7
2016-08-02T10:01:17.640Z,14.7
2016-08-02T10:16:17.654Z,14.5
2016-08-02T10:31:17.713Z,14.5
2016-08-02T10:46:17.673Z,14.6
2016-08-02T11:01:17.679Z,14.7
2016-08-02T11:16:17.693Z,14.9
2016-08-02T11:31:19.407Z,15
2016-08-02T11:46:17.713Z,15.1
2016-08-02T12:01:17.722Z,15.1
2016-08-02T12:16:17.719Z,15.3
2016-08-02T12:31:17.739Z,15.2
2016-08-02T12:46:22.397Z,15.1
2016-08-02T13:01:17.749Z,15.3
2016-08-02T13:16:17.769Z,15.5
2016-08-02T13:31:22.371Z,15.9
2016-08-02T13:46:32.455Z,16.4
2016-08-02T14:01:24.000Z,16.4
2016-08-02T14:16:22.400Z,16.4
2016-08-02T14:31:22.395Z,16.5
2016-08-02T14:46:17.818Z,16.7
2016-08-02T15:01:22.816Z,16.8
2016-08-02T15:16:17.829Z,16.6
2016-08-02T15:31:25.965Z,16.4
2016-08-02T15:46:36.462Z,16.5
2016-08-02T16:01:26.027Z,16.6
2016-08-02T16:31:23.997Z,16.5
2016-08-02T16:46:24.029Z,16.5
2016-08-02T17:01:30.751Z,16.4
2016-08-02T17:16:17.903Z,16.4
2016-08-02T17:31:32.441Z,16.3
2016-08-02T17:46:17.932Z,16.3
2016-08-02T18:01:17.921Z,16.4
2016-08-02T18:16:17.994Z,16.3
2016-08-02T18:31:17.955Z,16.2
2016-08-02T18:46:17.966Z,16.2
2016-08-02T19:01:17.966Z,16.2
2016-08-02T19:16:23.217Z,16.1
2016-08-02T19:31:22.590Z,16
2016-08-02T19:46:20.070Z,16
2016-08-02T20:01:24.345Z,16
2016-08-02T20:16:18.047Z,15.9
2016-08-02T20:31:18.064Z,15.9
2016-08-02T20:46:18.020Z,15.9
2016-08-02T21:01:18.093Z,15.9
2016-08-02T21:16:24.260Z,16
2016-08-02T21:31:22.394Z,16
2016-08-02T21:46:18.074Z,16
2016-08-02T22:01:18.083Z,16
2016-08-02T22:16:18.081Z,16
2016-08-02T22:31:18.093Z,16
2016-08-02T22:46:23.093Z,16
2016-08-02T23:01:20.109Z,16
2016-08-02T23:16:35.367Z,15.9
2016-08-02T23:31:18.128Z,15.9
2016-08-02T23:46:18.140Z,15.9
